Time;durP1;ratioP1;P1;durP2;ratioP2;P2;SDS_P1;SDS_P2;PMS_P1;PMS_P2;Temp;Humidity;BMP_temperature;BMP_pressure;BME280_temperature;BME280_humidity;BME280_pressure;Samples;Min_cycle;Max_cycle;Signal;HPM_P1;HPM_P2
2021/05/01 00:01:25;;;;;;;6.57;5.13;;;;;;;7.15;89.65;101437.84;4918645;29;20051;-80
2021/05/01 00:03:50;;;;;;;5.50;5.00;;;;;;;7.01;89.18;101425.66;4892077;29;20056;-80
2021/05/01 00:06:16;;;;;;;6.85;5.00;;;;;;;6.78;89.04;101379.41;4893888;29;20729;-80
2021/05/01 00:08:42;;;;;;;5.60;5.10;;;;;;;7.12;89.04;101435.41;4908529;29;20043;-80
2021/05/01 00:11:08;;;;;;;6.35;5.75;;;;;;;6.95;89.12;101402.66;4891078;29;20098;-80
2021/05/01 00:13:35;;;;;;;5.53;5.03;;;;;;;7.14;89.14;101439.59;4908503;29;20353;-81
2021/05/01 00:16:02;;;;;;;5.88;5.28;;;;;;;7.00;89.76;101412.75;4892007;29;20067;-81
2021/05/01 00:18:28;;;;;;;6.18;5.57;;;;;;;6.92;89.63;101405.41;4923195;29;20134;-81
2021/05/01 00:20:54;;;;;;;6.65;5.88;;;;;;;6.96;90.07;101423.28;4891256;29;20661;-80
2021/05/01 00:23:19;;;;;;;6.25;5.65;;;;;;;6.90;90.06;101407.25;4909339;29;20060;-81
2021/05/01 00:25:45;;;;;;;7.47;5.85;;;;;;;6.80;90.11;101396.53;4907986;29;20075;-80
2021/05/01 00:28:11;;;;;;;6.63;5.93;;;;;;;6.85;89.94;101398.91;4891330;29;20066;-80
2021/05/01 00:30:39;;;;;;;7.65;6.18;;;;;;;6.82;89.79;101404.22;4927306;29;20446;-80
2021/05/01 00:33:04;;;;;;;6.60;6.00;;;;;;;6.82;89.86;101414.56;4892425;29;20051;-80
2021/05/01 00:35:30;;;;;;;8.60;6.32;;;;;;;6.74;89.75;101396.88;4925235;29;20407;-80
2021/05/01 00:37:56;;;;;;;7.75;6.78;;;;;;;6.29;89.96;101340.59;4896347;29;20067;-80
2021/05/01 00:40:21;;;;;;;6.70;6.00;;;;;;;6.79;89.84;101405.22;4912495;29;20060;-80
2021/05/01 00:42:48;;;;;;;7.57;6.82;;;;;;;6.45;90.40;101341.44;4909586;29;20066;-79
2021/05/01 00:45:13;;;;;;;8.27;7.43;;;;;;;6.91;90.46;101406.31;4881242;29;20066;-80
2021/05/01 00:47:39;;;;;;;9.48;7.32;;;;;;;6.88;90.08;101401.31;4922212;29;20055;-80
2021/05/01 00:50:05;;;;;;;7.75;6.95;;;;;;;6.33;90.90;101301.56;4908070;29;20070;-80
2021/05/01 00:52:34;;;;;;;8.18;7.38;;;;;;;6.95;90.26;101395.72;4909242;29;20048;-80
2021/05/01 00:55:02;;;;;;;9.02;8.18;;;;;;;6.48;90.12;101314.59;4909544;29;20054;-80
2021/05/01 00:57:27;;;;;;;8.40;7.60;;;;;;;6.89;89.94;101380.53;4907859;29;20101;-80
2021/05/01 00:59:53;;;;;;;8.88;7.95;;;;;;;6.83;89.99;101383.44;4907308;29;20043;-80
2021/05/01 01:02:22;;;;;;;9.18;8.27;;;;;;;7.04;90.16;101402.19;4919356;29;20099;-80
2021/05/01 01:04:47;;;;;;;8.55;7.72;;;;;;;6.68;89.73;101340.25;4880155;29;20079;-80
2021/05/01 01:07:14;;;;;;;8.85;8.05;;;;;;;6.51;89.90;101310.09;4905084;29;20087;-80
2021/05/01 01:09:39;;;;;;;9.05;8.07;;;;;;;6.94;89.88;101377.69;4900133;29;20243;-80
2021/05/01 01:12:06;;;;;;;8.82;8.02;;;;;;;7.01;89.88;101383.38;4922685;29;20407;-80
2021/05/01 01:14:32;;;;;;;8.80;7.90;;;;;;;7.08;89.85;101397.66;4923474;29;20930;-80
2021/05/01 01:16:57;;;;;;;8.70;7.82;;;;;;;7.06;89.07;101396.91;4890337;29;20048;-80
2021/05/01 01:19:23;;;;;;;8.90;8.00;;;;;;;7.03;89.32;101390.16;4892182;29;20063;-80
2021/05/01 01:21:50;;;;;;;9.20;7.90;;;;;;;6.99;89.35;101388.63;4909100;29;20388;-80
2021/05/01 01:24:17;;;;;;;9.45;8.55;;;;;;;7.08;89.20;101406.25;4907520;29;20043;-80
2021/05/01 01:26:43;;;;;;;8.82;8.02;;;;;;;7.08;89.48;101406.25;4909085;29;20039;-80
2021/05/01 01:29:13;;;;;;;8.77;7.97;;;;;;;6.95;89.01;101376.75;4906933;29;20062;-79
2021/05/01 01:31:39;;;;;;;10.55;9.55;;;;;;;6.57;89.56;101320.13;4906222;29;20074;-80
2021/05/01 01:34:05;;;;;;;9.98;8.98;;;;;;;6.46;89.52;101312.06;4878330;29;20044;-80
2021/05/01 01:36:31;;;;;;;9.65;8.70;;;;;;;6.86;89.49;101380.69;4904677;29;20055;-80
2021/05/01 01:38:57;;;;;;;11.30;10.23;;;;;;;6.79;89.81;101373.31;4922045;29;20043;-80
2021/05/01 01:41:23;;;;;;;11.30;10.05;;;;;;;6.61;89.78;101350.06;4920459;29;20056;-81
2021/05/01 01:43:49;;;;;;;10.27;9.27;;;;;;;6.83;89.57;101377.44;4892811;29;20083;-81
2021/05/01 01:46:15;;;;;;;10.40;9.40;;;;;;;6.85;90.27;101379.03;4908079;29;20501;-80
2021/05/01 01:48:40;;;;;;;12.10;10.07;;;;;;;6.74;89.88;101373.56;4896011;29;20050;-80
2021/05/01 01:51:06;;;;;;;12.05;10.85;;;;;;;6.84;89.97;101387.72;4895488;29;20055;-80
2021/05/01 01:53:32;;;;;;;11.27;10.18;;;;;;;6.94;90.41;101399.22;4894457;29;20050;-80
2021/05/01 01:55:58;;;;;;;11.50;10.40;;;;;;;6.75;90.05;101369.22;4934517;28;20308;-80
2021/05/01 01:58:24;;;;;;;11.45;10.35;;;;;;;6.53;89.60;101334.13;4911878;29;20047;-80
2021/05/01 02:00:51;;;;;;;10.82;9.73;;;;;;;6.84;90.03;101392.06;4928056;29;20514;-80
2021/05/01 02:03:17;;;;;;;11.40;10.18;;;;;;;6.71;89.39;101367.72;4911737;29;20052;-81
2021/05/01 02:05:44;;;;;;;11.55;10.40;;;;;;;5.99;90.25;101268.03;4909326;29;20485;-80
2021/05/01 02:08:10;;;;;;;12.27;11.07;;;;;;;6.41;89.70;101323.59;4895726;29;20047;-80
2021/05/01 02:10:36;;;;;;;12.32;11.02;;;;;;;6.43;90.39;101325.16;4941359;28;20058;-80
2021/05/01 02:13:04;;;;;;;13.15;11.85;;;;;;;6.75;89.90;101379.56;4894319;29;20035;-80
2021/05/01 02:15:29;;;;;;;12.90;11.60;;;;;;;6.89;90.64;101398.66;4925800;29;20050;-80
2021/05/01 02:17:57;;;;;;;13.93;12.52;;;;;;;6.41;90.89;101321.84;4911624;29;20498;-81
2021/05/01 02:20:28;;;;;;;13.68;12.35;;;;;;;6.34;90.15;101318.75;4880338;29;20050;-81
2021/05/01 02:22:54;;;;;;;14.20;12.75;;;;;;;6.77;90.81;101375.16;4894602;29;20059;-80
2021/05/01 02:25:20;;;;;;;14.65;13.25;;;;;;;6.70;90.75;101360.88;4905424;29;20048;-80
2021/05/01 02:27:46;;;;;;;13.52;12.23;;;;;;;6.89;90.12;101384.88;4912464;29;20665;-79
2021/05/01 02:30:18;;;;;;;14.80;13.30;;;;;;;6.90;90.40;101387.38;4920836;29;20154;-81
2021/05/01 02:32:44;;;;;;;15.68;14.07;;;;;;;6.78;90.56;101367.31;4896774;29;20047;-80
2021/05/01 02:35:12;;;;;;;15.98;14.27;;;;;;;6.81;90.24;101367.13;4926510;29;20054;-81
2021/05/01 02:37:38;;;;;;;16.77;15.07;;;;;;;6.69;90.23;101349.69;4906960;29;20414;-81
2021/05/01 02:40:07;;;;;;;16.58;14.88;;;;;;;6.48;90.57;101319.78;4911411;29;20047;-80
2021/05/01 02:42:32;;;;;;;16.08;14.43;;;;;;;6.76;90.28;101363.97;4923807;29;20099;-80
2021/05/01 02:44:58;;;;;;;16.95;14.70;;;;;;;6.76;90.36;101353.59;4909219;29;20448;-80
2021/05/01 02:47:24;;;;;;;17.80;15.82;;;;;;;6.77;90.84;101365.63;4889233;29;20072;-80
2021/05/01 02:49:49;;;;;;;17.17;15.45;;;;;;;6.68;91.16;101352.38;4896136;29;20131;-80
2021/05/01 02:52:15;;;;;;;17.63;15.82;;;;;;;6.48;90.71;101318.03;4912041;29;20071;-80
2021/05/01 02:54:41;;;;;;;18.30;16.42;;;;;;;6.22;90.63;101272.81;4923988;29;20055;-80
2021/05/01 02:57:06;;;;;;;19.08;16.95;;;;;;;6.71;90.57;101358.22;4891738;29;20058;-81
2021/05/01 02:59:32;;;;;;;18.85;16.90;;;;;;;6.61;90.71;101341.47;4907977;29;20047;-80
2021/05/01 03:01:57;;;;;;;24.60;17.88;;;;;;;6.14;91.13;101267.22;4908310;29;20078;-80
2021/05/01 03:04:23;;;;;;;19.42;16.63;;;;;;;6.64;90.71;101362.88;4896093;29;20059;-80
2021/05/01 03:06:48;;;;;;;18.80;16.83;;;;;;;6.26;90.78;101301.94;4908960;29;20062;-81
2021/05/01 03:09:14;;;;;;;20.92;18.40;;;;;;;6.53;91.39;101357.44;4906915;29;20106;-80
2021/05/01 03:11:40;;;;;;;19.77;17.55;;;;;;;6.42;91.20;101345.94;4888692;29;20043;-80
2021/05/01 03:14:05;;;;;;;19.98;17.80;;;;;;;6.32;91.77;101333.50;4891904;29;20047;-80
2021/05/01 03:16:31;;;;;;;20.27;17.98;;;;;;;6.19;91.00;101316.13;4927370;29;20069;-80
2021/05/01 03:18:56;;;;;;;18.27;16.35;;;;;;;5.99;91.65;101299.88;4908431;29;20163;-80
2021/05/01 03:21:22;;;;;;;20.10;17.90;;;;;;;5.97;91.09;101298.28;4926576;29;20132;-81
2021/05/01 03:23:50;;;;;;;20.60;18.40;;;;;;;6.09;91.41;101335.59;4890259;29;20063;-80
2021/05/01 03:26:17;;;;;;;20.80;18.15;;;;;;;5.97;90.91;101324.97;4926009;28;20075;-80
2021/05/01 03:28:43;;;;;;;20.90;18.38;;;;;;;5.83;91.37;101305.88;4891467;29;20054;-80
2021/05/01 03:31:08;;;;;;;20.65;17.35;;;;;;;5.97;91.04;101342.25;4922404;29;20124;-80
2021/05/01 03:33:34;;;;;;;20.67;18.48;;;;;;;5.21;90.81;101228.00;4892526;29;20043;-81
2021/05/01 03:36:00;;;;;;;20.92;18.83;;;;;;;5.56;91.11;101285.66;4902317;29;20743;-80
2021/05/01 03:38:26;;;;;;;22.48;18.27;;;;;;;5.66;91.46;101299.78;4901504;29;20048;-80
2021/05/01 03:40:52;;;;;;;22.00;18.77;;;;;;;5.46;92.04;101274.94;4920486;29;20390;-80
2021/05/01 03:43:19;;;;;;;20.65;18.40;;;;;;;5.12;91.64;101226.69;4908231;29;20056;-80
2021/05/01 03:45:46;;;;;;;21.95;18.15;;;;;;;5.31;91.42;101256.78;4924805;29;20039;-80
2021/05/01 03:48:12;;;;;;;23.05;19.27;;;;;;;5.00;91.96;101219.53;4902715;29;20434;-81
2021/05/01 03:50:37;;;;;;;22.42;19.00;;;;;;;5.66;91.89;101329.97;4908350;29;20051;-80
2021/05/01 03:53:03;;;;;;;22.42;19.23;;;;;;;5.64;91.96;101344.72;4909622;29;20177;-80
2021/05/01 03:55:29;;;;;;;23.65;19.35;;;;;;;5.55;91.66;101320.13;4932307;28;20486;-80
2021/05/01 03:57:54;;;;;;;23.95;20.35;;;;;;;5.44;91.71;101302.59;4904680;29;20044;-80
2021/05/01 04:00:21;;;;;;;23.38;19.73;;;;;;;5.60;91.71;101322.53;4906982;29;20070;-80
2021/05/01 04:02:46;;;;;;;27.52;20.48;;;;;;;5.50;91.44;101305.78;4907207;29;20047;-80
2021/05/01 04:05:15;;;;;;;28.13;20.77;;;;;;;5.62;91.46;101326.69;4907115;29;20040;-80
2021/05/01 04:07:41;;;;;;;26.05;21.70;;;;;;;5.53;91.91;101314.22;4907192;29;20054;-79
2021/05/01 04:10:07;;;;;;;24.13;20.58;;;;;;;5.36;92.04;101298.72;4892234;29;20443;-80
2021/05/01 04:12:33;;;;;;;26.60;20.75;;;;;;;5.47;91.67;101323.13;4902381;29;20558;-80
2021/05/01 04:14:58;;;;;;;24.30;20.00;;;;;;;5.60;91.24;101344.03;4904712;29;20047;-81
2021/05/01 04:17:24;;;;;;;25.13;20.40;;;;;;;5.30;91.30;101299.00;4889507;29;20498;-80
2021/05/01 04:19:49;;;;;;;22.80;18.92;;;;;;;5.41;91.23;101309.66;4919032;29;20055;-80
2021/05/01 04:22:19;;;;;;;23.50;20.35;;;;;;;5.44;91.08;101312.94;4908600;29;21078;-80
2021/05/01 04:24:45;;;;;;;23.75;20.50;;;;;;;5.05;91.33;101263.22;4921348;29;20269;-80
2021/05/01 04:27:10;;;;;;;24.48;20.40;;;;;;;5.42;91.11;101313.94;4908743;29;20048;-79
2021/05/01 04:29:36;;;;;;;25.50;20.35;;;;;;;5.57;91.35;101340.75;4892632;29;20221;-80
2021/05/01 04:32:02;;;;;;;25.55;21.05;;;;;;;4.95;91.24;101236.16;4904889;29;20052;-80
2021/05/01 04:34:27;;;;;;;24.90;20.88;;;;;;;5.36;91.01;101303.88;4900909;29;20798;-80
2021/05/01 04:36:53;;;;;;;24.13;20.65;;;;;;;5.59;91.11;101337.19;4887015;29;20060;-77
2021/05/01 04:39:18;;;;;;;24.17;20.08;;;;;;;5.02;91.04;101246.09;4893371;29;20056;-78
2021/05/01 04:41:45;;;;;;;23.33;20.05;;;;;;;5.53;90.54;101326.31;4874343;29;20043;-78
2021/05/01 04:44:10;;;;;;;23.92;19.65;;;;;;;5.05;90.83;101250.31;4889595;29;20423;-76
2021/05/01 04:46:36;;;;;;;26.13;20.70;;;;;;;5.65;90.76;101349.78;4875765;29;20055;-78
2021/05/01 04:49:05;;;;;;;25.27;22.25;;;;;;;5.46;90.81;101324.03;4872711;29;20059;-78
2021/05/01 04:51:30;;;;;;;24.63;21.08;;;;;;;5.32;90.61;101300.59;4885573;29;20048;-78
2021/05/01 04:53:57;;;;;;;22.83;19.67;;;;;;;5.68;90.79;101352.22;4875145;29;20431;-77
2021/05/01 04:56:23;;;;;;;23.23;19.83;;;;;;;5.55;90.37;101320.13;4886441;29;20071;-79
2021/05/01 04:58:48;;;;;;;25.42;20.80;;;;;;;5.36;90.90;101280.63;4900652;29;20055;-78
2021/05/01 05:01:14;;;;;;;21.45;19.08;;;;;;;5.64;90.95;101349.88;4899644;29;20058;-78
2021/05/01 05:03:39;;;;;;;21.45;18.30;;;;;;;5.43;91.08;101313.84;4888819;29;20044;-79
2021/05/01 05:06:05;;;;;;;19.73;17.55;;;;;;;5.63;90.69;101346.47;4872824;29;20575;-78
2021/05/01 05:08:30;;;;;;;18.80;16.77;;;;;;;5.70;91.19;101344.41;4867025;29;20048;-78
2021/05/01 05:10:56;;;;;;;19.63;16.67;;;;;;;5.75;90.28;101343.28;4872632;29;20048;-78
2021/05/01 05:13:26;;;;;;;19.52;16.02;;;;;;;5.74;90.66;101343.31;4870683;29;20047;-78
2021/05/01 05:15:52;;;;;;;22.23;15.95;;;;;;;5.67;90.65;101331.63;4870747;29;20044;-78
2021/05/01 05:18:18;;;;;;;28.80;16.73;;;;;;;5.94;90.57;101363.91;4872825;29;20055;-78
2021/05/01 05:20:45;;;;;;;18.58;15.77;;;;;;;5.87;90.63;101359.91;4876708;29;20055;-78
2021/05/01 05:23:10;;;;;;;17.25;15.05;;;;;;;5.79;90.83;101341.38;4895408;29;20128;-79
2021/05/01 05:25:36;;;;;;;16.23;14.48;;;;;;;5.80;91.09;101350.78;4891458;29;20075;-78
2021/05/01 05:28:02;;;;;;;16.17;14.48;;;;;;;5.79;90.62;101349.13;4908467;29;20059;-78
2021/05/01 05:30:27;;;;;;;15.40;13.75;;;;;;;5.73;91.09;101336.50;4912032;29;20044;-78
2021/05/01 05:32:57;;;;;;;16.00;14.27;;;;;;;5.90;90.88;101361.53;4925391;29;20046;-79
2021/05/01 05:35:23;;;;;;;15.35;13.43;;;;;;;5.81;90.93;101349.06;4910478;29;20050;-79
2021/05/01 05:37:49;;;;;;;15.38;13.68;;;;;;;5.91;91.27;101363.19;4911166;29;20043;-78
2021/05/01 05:40:15;;;;;;;15.27;13.57;;;;;;;5.93;90.56;101359.66;4893143;29;20103;-79
2021/05/01 05:42:45;;;;;;;14.30;12.75;;;;;;;5.92;91.08;101364.88;4894223;29;20067;-79
2021/05/01 05:45:11;;;;;;;14.60;13.15;;;;;;;5.81;90.96;101360.22;4894947;29;20053;-79
2021/05/01 05:47:37;;;;;;;14.15;12.75;;;;;;;5.67;91.53;101347.13;4893542;29;20040;-78
2021/05/01 05:50:03;;;;;;;13.77;12.38;;;;;;;5.85;91.09;101377.25;4895677;29;20138;-78
2021/05/01 05:52:31;;;;;;;16.05;12.00;;;;;;;5.89;91.28;101365.84;4891548;29;20122;-78
2021/05/01 05:54:59;;;;;;;13.90;12.50;;;;;;;5.87;90.73;101352.16;4902901;29;20510;-78
2021/05/01 05:57:25;;;;;;;12.27;11.07;;;;;;;5.98;90.94;101368.00;4910119;29;20048;-79
2021/05/01 05:59:51;;;;;;;13.13;11.82;;;;;;;5.97;90.54;101371.50;4897263;29;20043;-79
2021/05/01 06:02:21;;;;;;;12.35;11.13;;;;;;;6.02;90.77;101372.09;4865227;29;20414;-78
2021/05/01 06:04:51;;;;;;;12.45;11.23;;;;;;;6.04;90.70;101359.94;4895223;29;20862;-78
2021/05/01 06:07:26;;;;;;;11.05;9.95;;;;;;;6.02;90.90;101351.41;4926235;29;20043;-78
2021/05/01 06:09:53;;;;;;;10.48;9.48;;;;;;;6.00;90.75;101340.31;4925368;29;20687;-78
2021/05/01 06:12:20;;;;;;;11.35;10.10;;;;;;;6.25;91.04;101354.59;4920169;29;20052;-78
2021/05/01 06:14:47;;;;;;;9.48;8.48;;;;;;;6.40;89.78;101358.97;4916032;29;20055;-78
2021/05/01 06:17:15;;;;;;;10.13;8.80;;;;;;;6.40;89.93;101340.88;4922306;29;20499;-78
2021/05/01 06:19:41;;;;;;;8.23;7.40;;;;;;;6.65;88.28;101371.47;4927978;29;20181;-78
2021/05/01 06:22:08;;;;;;;7.65;6.80;;;;;;;6.65;87.54;101366.31;4910342;29;20570;-79
2021/05/01 06:24:34;;;;;;;7.22;6.53;;;;;;;6.82;88.13;101366.25;4936722;28;20392;-78
2021/05/01 06:27:01;;;;;;;7.45;6.65;;;;;;;6.85;88.19;101362.66;4909875;29;20044;-78
2021/05/01 06:29:28;;;;;;;7.05;6.03;;;;;;;7.01;87.45;101376.44;4923911;28;20079;-79
2021/05/01 06:31:55;;;;;;;6.80;6.15;;;;;;;7.03;87.85;101358.22;4900922;29;20044;-79
2021/05/01 06:34:20;;;;;;;5.70;5.10;;;;;;;7.15;86.20;101366.16;4875729;29;20036;-78
2021/05/01 06:36:46;;;;;;;4.97;4.50;;;;;;;7.23;85.73;101369.16;4872897;29;20571;-78
2021/05/01 06:39:13;;;;;;;5.50;4.60;;;;;;;7.15;85.54;101344.59;4886515;29;20036;-79
2021/05/01 06:41:47;;;;;;;5.00;4.50;;;;;;;7.34;85.83;101360.78;4890452;29;20055;-79
2021/05/01 06:44:24;;;;;;;4.60;4.20;;;;;;;7.37;85.16;101352.88;4876011;29;20052;-77
2021/05/01 06:46:50;;;;;;;4.93;4.43;;;;;;;7.14;84.87;101317.84;4889913;29;20503;-78
2021/05/01 06:49:25;;;;;;;4.45;3.95;;;;;;;7.35;85.56;101351.25;4875320;29;20063;-79
2021/05/01 06:51:51;;;;;;;4.40;4.00;;;;;;;7.43;85.04;101344.75;4872126;29;20052;-79
2021/05/01 06:54:17;;;;;;;4.18;3.78;;;;;;;7.50;84.19;101353.81;4889346;29;20048;-79
2021/05/01 06:56:44;;;;;;;3.72;3.33;;;;;;;7.46;83.53;101343.72;4885721;29;20044;-78
2021/05/01 06:59:10;;;;;;;4.03;3.63;;;;;;;7.46;83.81;101352.34;4901259;29;20523;-78
2021/05/01 07:01:40;;;;;;;3.72;3.33;;;;;;;7.51;84.23;101336.50;4917039;29;20055;-78
2021/05/01 07:04:12;;;;;;;4.10;3.00;;;;;;;7.55;84.79;101335.44;4887618;29;20149;-78
2021/05/01 07:06:38;;;;;;;3.17;2.88;;;;;;;7.72;82.53;101355.19;4871327;29;20052;-78
2021/05/01 07:09:05;;;;;;;3.75;3.30;;;;;;;7.80;83.60;101365.97;4875095;29;20044;-78
2021/05/01 07:11:31;;;;;;;3.58;3.28;;;;;;;7.70;83.42;101344.06;4905104;29;20067;-79
2021/05/01 07:13:58;;;;;;;3.40;3.10;;;;;;;7.89;84.98;101371.44;4892027;29;20072;-80
2021/05/01 07:16:24;;;;;;;2.97;2.78;;;;;;;7.78;81.61;101353.09;4902649;29;20522;-78
2021/05/01 07:18:49;;;;;;;3.05;2.55;;;;;;;7.74;81.96;101361.97;4905523;29;20078;-78
2021/05/01 07:21:17;;;;;;;3.17;2.88;;;;;;;7.80;82.44;101361.63;4913441;29;20515;-78
2021/05/01 07:23:42;;;;;;;2.75;2.55;;;;;;;7.71;83.11;101354.34;4890876;29;20048;-79
2021/05/01 07:26:10;;;;;;;3.13;2.83;;;;;;;7.80;82.28;101384.13;4875685;29;20111;-78
2021/05/01 07:28:37;;;;;;;2.60;2.35;;;;;;;7.70;81.56;101376.00;4895851;29;20055;-79
2021/05/01 07:31:08;;;;;;;2.95;2.65;;;;;;;7.75;81.74;101392.16;4894725;29;20051;-79
2021/05/01 07:33:39;;;;;;;3.22;2.70;;;;;;;7.73;82.54;101382.81;4896380;29;20035;-80
2021/05/01 07:36:13;;;;;;;2.85;2.50;;;;;;;7.75;81.84;101371.44;4912765;29;20047;-80
2021/05/01 07:38:43;;;;;;;2.83;2.63;;;;;;;7.87;83.04;101362.91;4911005;29;20051;-80
2021/05/01 07:41:12;;;;;;;2.83;2.63;;;;;;;7.94;82.86;101372.97;4924019;29;20050;-79
2021/05/01 07:43:41;;;;;;;3.08;2.70;;;;;;;8.13;83.38;101392.53;4917871;29;20130;-79
2021/05/01 07:46:08;;;;;;;2.72;2.53;;;;;;;8.12;82.39;101367.53;4928443;29;20054;-80
2021/05/01 07:48:35;;;;;;;2.40;2.20;;;;;;;8.18;81.07;101385.31;4891556;29;20058;-77
2021/05/01 07:51:01;;;;;;;3.20;2.90;;;;;;;8.19;81.11;101368.81;4911562;29;20135;-79
2021/05/01 07:53:28;;;;;;;3.08;2.60;;;;;;;8.35;80.07;101383.53;4908243;29;20534;-79
2021/05/01 07:55:54;;;;;;;3.25;2.50;;;;;;;8.45;80.60;101377.69;4911081;29;20074;-78
2021/05/01 07:58:19;;;;;;;2.65;2.45;;;;;;;8.31;81.77;101350.88;4907680;29;20538;-80
2021/05/01 08:00:47;;;;;;;2.80;2.33;;;;;;;8.38;79.96;101385.94;4908205;29;20798;-80
2021/05/01 08:03:14;;;;;;;4.38;2.70;;;;;;;8.33;82.33;101351.59;4918794;29;20510;-80
2021/05/01 08:05:40;;;;;;;2.90;2.45;;;;;;;8.53;79.88;101366.84;4911412;29;20051;-81
2021/05/01 08:08:05;;;;;;;2.88;2.67;;;;;;;8.58;80.50;101348.38;4892708;29;20126;-81
2021/05/01 08:10:31;;;;;;;3.08;2.78;;;;;;;8.95;80.69;101371.16;4920107;29;20062;-81
2021/05/01 08:12:56;;;;;;;4.45;2.60;;;;;;;9.06;79.25;101354.91;4887314;29;20143;-81
2021/05/01 08:15:22;;;;;;;2.50;2.30;;;;;;;9.02;76.88;101363.84;4920501;29;20612;-79
2021/05/01 08:17:48;;;;;;;3.17;2.55;;;;;;;8.80;78.13;101346.16;4908184;29;20047;-81
2021/05/01 08:20:15;;;;;;;3.00;2.20;;;;;;;8.82;77.55;101369.44;4883671;29;20039;-81
2021/05/01 08:22:44;;;;;;;3.17;2.42;;;;;;;8.98;77.27;101383.13;4877079;29;20483;-82
2021/05/01 08:25:12;;;;;;;2.30;2.03;;;;;;;8.79;76.94;101347.88;4927600;29;20069;-83
2021/05/01 08:27:38;;;;;;;2.53;2.13;;;;;;;9.20;76.67;101382.63;4910963;29;20052;-82
2021/05/01 08:30:09;;;;;;;3.22;2.40;;;;;;;9.14;76.21;101367.41;4914434;29;20112;-82
2021/05/01 08:32:34;;;;;;;2.70;2.42;;;;;;;9.15;77.41;101369.06;4904611;29;20040;-84
2021/05/01 08:35:00;;;;;;;2.80;2.20;;;;;;;9.10;75.94;101371.97;4902417;29;20546;-83
2021/05/01 08:37:26;;;;;;;4.40;2.47;;;;;;;9.25;77.03;101372.75;4876519;29;20050;-83
2021/05/01 08:39:51;;;;;;;2.65;2.05;;;;;;;9.23;76.09;101361.63;4896320;29;20048;-81
2021/05/01 08:42:17;;;;;;;3.28;2.45;;;;;;;9.41;76.69;101372.63;4884706;29;20443;-83
2021/05/01 08:44:43;;;;;;;2.72;2.17;;;;;;;9.47;76.42;101378.25;4906144;29;20478;-82
2021/05/01 08:47:08;;;;;;;2.72;2.35;;;;;;;9.45;75.88;101361.09;4908329;29;20040;-80
2021/05/01 08:49:34;;;;;;;2.65;2.30;;;;;;;9.54;77.04;101347.50;4887964;29;20043;-81
2021/05/01 08:52:00;;;;;;;4.20;2.50;;;;;;;9.84;75.51;101371.47;4859615;29;20432;-80
2021/05/01 08:54:26;;;;;;;3.55;2.20;;;;;;;9.92;75.13;101348.41;4901095;29;20044;-82
2021/05/01 08:56:52;;;;;;;3.85;2.42;;;;;;;10.05;74.83;101356.22;4884800;29;20423;-81
2021/05/01 08:59:18;;;;;;;2.92;2.13;;;;;;;10.15;75.63;101361.66;4890159;29;20499;-80
2021/05/01 09:01:49;;;;;;;4.35;2.55;;;;;;;10.15;74.23;101372.88;4891314;29;20058;-81
2021/05/01 09:04:15;;;;;;;3.65;2.40;;;;;;;9.96;76.19;101382.84;4907922;29;20048;-80
2021/05/01 09:06:41;;;;;;;3.88;2.40;;;;;;;9.74;75.67;101377.41;4904038;29;20056;-81
2021/05/01 09:09:09;;;;;;;3.17;1.80;;;;;;;9.49;73.95;101365.97;4889639;29;20487;-82
2021/05/01 09:11:37;;;;;;;1.88;1.77;;;;;;;9.51;73.94;101386.69;4892636;29;20207;-86
2021/05/01 09:14:26;;;;;;;3.45;2.20;;;;;;;9.39;74.69;101383.97;4915599;29;20733;-84
2021/05/01 09:16:58;;;;;;;2.35;1.90;;;;;;;9.38;75.08;101381.47;4908220;29;20722;-83
2021/05/01 09:19:35;;;;;;;2.85;1.92;;;;;;;9.26;74.45;101351.03;4872605;29;20072;-80
2021/05/01 09:22:08;;;;;;;2.92;2.20;;;;;;;9.34;73.97;101361.78;4875346;29;20410;-82
2021/05/01 09:24:35;;;;;;;3.13;2.53;;;;;;;9.34;74.25;101364.41;4889241;29;20081;-82
2021/05/01 09:27:01;;;;;;;3.00;1.95;;;;;;;9.38;73.91;101360.66;4904807;29;20532;-80
2021/05/01 09:29:30;;;;;;;2.80;2.15;;;;;;;9.44;74.34;101372.41;4886426;29;20174;-82
2021/05/01 09:31:56;;;;;;;2.90;2.30;;;;;;;9.45;74.51;101356.72;4913901;29;20087;-82
2021/05/01 09:34:37;;;;;;;2.38;1.90;;;;;;;9.68;71.32;101386.41;4883700;29;20203;-81
2021/05/01 09:37:04;;;;;;;3.10;2.10;;;;;;;9.81;73.16;101376.06;4869814;29;21263;-79
2021/05/01 09:39:29;;;;;;;3.92;2.20;;;;;;;10.07;73.22;101384.75;4885221;29;20403;-81
2021/05/01 09:41:55;;;;;;;2.53;2.10;;;;;;;10.69;72.09;101364.88;4871235;29;20052;-80
2021/05/01 09:44:23;;;;;;;3.35;2.15;;;;;;;10.90;69.27;101365.97;4914967;29;20052;-82
2021/05/01 09:46:51;;;;;;;2.55;2.20;;;;;;;10.88;67.72;101378.28;4905340;29;20044;-81
2021/05/01 09:49:19;;;;;;;2.47;1.98;;;;;;;10.86;67.47;101377.56;4900266;29;20112;-84
2021/05/01 09:51:57;;;;;;;2.83;2.03;;;;;;;10.51;66.75;101356.56;4904685;29;20083;-80
2021/05/01 09:54:27;;;;;;;2.35;1.92;;;;;;;10.47;66.26;101380.31;4905750;29;20399;-78
2021/05/01 09:56:55;;;;;;;2.30;2.10;;;;;;;10.24;67.57;101338.47;4891375;29;20060;-79
2021/05/01 09:59:20;;;;;;;3.45;2.00;;;;;;;10.44;67.13;101352.72;4890369;29;20406;-79
2021/05/01 10:01:59;;;;;;;2.30;1.95;;;;;;;10.61;66.37;101348.13;4889770;29;20062;-82
2021/05/01 10:04:26;;;;;;;2.10;1.90;;;;;;;10.59;65.49;101353.41;4886373;29;20048;-81
2021/05/01 10:06:55;;;;;;;2.22;1.75;;;;;;;10.51;63.54;101337.50;4914360;29;20052;-81
2021/05/01 10:09:27;;;;;;;3.50;1.92;;;;;;;10.49;61.28;101345.41;4906957;29;20047;-80
2021/05/01 10:12:00;;;;;;;3.08;1.70;;;;;;;10.44;62.27;101337.09;4909633;29;20072;-81
2021/05/01 10:14:35;;;;;;;2.13;1.52;;;;;;;10.44;62.02;101360.53;4876574;29;20049;-82
2021/05/01 10:17:01;;;;;;;2.58;2.00;;;;;;;9.91;63.33;101284.31;4876253;29;20048;-79
2021/05/01 10:19:53;;;;;;;2.85;2.10;;;;;;;10.25;63.62;101360.97;4906508;29;20105;-79
2021/05/01 10:22:35;;;;;;;4.82;2.25;;;;;;;10.24;64.00;101359.28;4893136;29;20148;-79
2021/05/01 10:25:12;;;;;;;2.72;2.45;;;;;;;10.05;64.38;101344.97;4922251;29;20089;-80
2021/05/01 10:28:19;;;;;;;2.67;2.10;;;;;;;9.86;65.03;101340.16;4895069;29;20047;-83
2021/05/01 10:30:51;;;;;;;3.35;2.30;;;;;;;10.23;65.76;101352.44;4916209;29;20103;-80
2021/05/01 10:33:24;;;;;;;2.28;1.90;;;;;;;10.32;63.72;101353.56;4912640;29;20059;-80
2021/05/01 10:35:59;;;;;;;3.13;2.08;;;;;;;10.37;62.77;101354.06;4894601;29;20066;-78
2021/05/01 10:38:25;;;;;;;2.28;1.90;;;;;;;10.26;63.20;101318.38;4897245;29;20501;-79
2021/05/01 10:40:59;;;;;;;2.33;1.92;;;;;;;10.28;62.49;101323.47;4945715;28;20032;-80
2021/05/01 10:43:29;;;;;;;2.88;2.20;;;;;;;10.55;62.64;101359.78;4921183;29;20075;-80
2021/05/01 10:45:54;;;;;;;2.92;1.85;;;;;;;10.52;61.27;101360.81;4899567;29;20043;-80
2021/05/01 10:48:21;;;;;;;2.55;2.17;;;;;;;10.41;60.53;101344.28;4919255;29;20471;-78
2021/05/01 10:51:08;;;;;;;3.35;1.90;;;;;;;10.46;60.74;101323.97;4905232;29;20055;-79
2021/05/01 10:53:35;;;;;;;2.72;1.90;;;;;;;10.77;60.97;101362.59;4903674;29;20051;-82
2021/05/01 10:56:02;;;;;;;2.75;1.90;;;;;;;10.87;62.33;101326.28;4903385;29;20443;-82
2021/05/01 10:58:47;;;;;;;2.83;2.00;;;;;;;11.03;61.64;101365.94;4902996;29;20055;-81
2021/05/01 11:01:33;;;;;;;2.70;2.05;;;;;;;10.99;58.17;101361.91;4905828;29;20414;-82
2021/05/01 11:04:07;;;;;;;3.30;1.85;;;;;;;10.89;58.58;101358.25;4932090;29;20561;-82
2021/05/01 11:06:46;;;;;;;2.80;1.98;;;;;;;10.82;58.49;101337.03;4899092;29;20060;-81
2021/05/01 11:09:33;;;;;;;2.33;2.10;;;;;;;10.66;57.75;101325.19;4920248;29;20047;-81
2021/05/01 11:12:00;;;;;;;2.92;2.10;;;;;;;10.71;58.79;101331.72;4913335;29;20495;-80
2021/05/01 11:14:31;;;;;;;3.67;2.15;;;;;;;10.76;58.63;101349.63;4896921;29;20047;-81
2021/05/01 11:17:12;;;;;;;3.33;2.25;;;;;;;10.76;59.57;101358.28;4929886;28;20069;-79
2021/05/01 11:19:46;;;;;;;3.28;2.22;;;;;;;10.58;59.43;101343.94;4910715;29;20058;-81
2021/05/01 11:22:19;;;;;;;3.08;2.00;;;;;;;10.57;59.49;101363.94;4922352;29;20067;-83
2021/05/01 11:24:45;;;;;;;2.38;1.90;;;;;;;10.61;58.67;101366.34;4897400;29;20497;-79
2021/05/01 11:27:12;;;;;;;2.22;1.92;;;;;;;10.72;58.41;101364.66;4893132;29;20515;-80
2021/05/01 11:29:39;;;;;;;2.20;1.83;;;;;;;10.83;56.60;101356.09;4926767;29;20077;-81